Time;durP1;ratioP1;P1;durP2;ratioP2;P2;SDS_P1;SDS_P2;PMS_P1;PMS_P2;Temp;Humidity;BMP_temperature;BMP_pressure;BME280_temperature;BME280_humidity;BME280_pressure;Samples;Min_cycle;Max_cycle;Signal;HPM_P1;HPM_P2
2022/12/29 00:02:04;;;;;;;35.60;31.73;;;;;;;6.11;65.49;95829.44;5026262;28;20228;-64
2022/12/29 00:04:29;;;;;;;39.27;32.30;;;;;;;6.13;65.14;95828.38;5014102;28;20218;-64
2022/12/29 00:06:55;;;;;;;37.60;31.93;;;;;;;6.18;64.98;95822.84;5005978;28;20190;-64
2022/12/29 00:09:22;;;;;;;38.73;30.30;;;;;;;6.26;64.83;95825.78;5012719;28;20184;-64
2022/12/29 00:11:49;;;;;;;39.83;30.27;;;;;;;6.18;64.66;95836.75;5020608;28;20302;-63
2022/12/29 00:16:59;;;;;;;35.77;29.27;;;;;;;6.20;64.88;95834.00;5008133;28;20228;-64
2022/12/29 00:36:03;;;;;;;27.67;24.77;;;;;;;6.32;63.74;95843.63;5011640;28;20301;-64
2022/12/29 00:44:07;;;;;;;28.93;25.73;;;;;;;6.43;63.48;95842.06;5010741;28;20313;-64
2022/12/29 00:46:33;;;;;;;32.03;25.83;;;;;;;6.46;63.57;95847.91;5021758;28;20222;-64
2022/12/29 00:51:43;;;;;;;30.33;24.80;;;;;;;6.23;64.55;95846.03;5005020;28;20190;-64
2022/12/29 00:54:09;;;;;;;27.53;23.33;;;;;;;5.69;66.06;95852.22;5016599;28;20221;-64
2022/12/29 00:56:34;;;;;;;28.47;23.77;;;;;;;5.81;65.58;95854.03;5020940;28;20223;-64
2022/12/29 00:59:05;;;;;;;26.57;23.67;;;;;;;5.49;66.97;95858.75;5024487;28;20226;-64
2022/12/29 01:01:31;;;;;;;26.03;23.23;;;;;;;5.38;67.36;95853.41;5010734;28;20472;-64
2022/12/29 01:03:56;;;;;;;27.40;24.27;;;;;;;5.12;68.20;95855.91;5019973;28;20245;-64
2022/12/29 01:06:22;;;;;;;25.23;22.03;;;;;;;5.19;68.25;95856.38;5010024;28;20187;-64
2022/12/29 01:10:09;;;;;;;25.33;22.57;;;;;;;5.45;68.05;95859.88;5008818;28;20226;-64
2022/12/29 01:11:33;;;;;;;25.53;20.90;;;;;;;5.64;66.75;95844.72;5008104;28;20222;-64
2022/12/29 01:13:58;;;;;;;24.50;20.13;;;;;;;5.80;66.37;95847.13;5012492;28;20269;-64
2022/12/29 01:16:24;;;;;;;22.53;20.17;;;;;;;5.85;65.80;95826.75;5020497;28;20229;-64
2022/12/29 01:18:49;;;;;;;22.20;19.73;;;;;;;5.94;65.33;95834.03;5015784;28;20269;-64
2022/12/29 01:21:15;;;;;;;21.13;18.80;;;;;;;5.89;64.96;95837.84;5017883;28;20286;-64
2022/12/29 01:23:40;;;;;;;21.93;19.63;;;;;;;5.87;65.14;95831.88;5010707;28;20258;-64
2022/12/29 01:26:14;;;;;;;22.90;20.50;;;;;;;5.92;65.20;95837.63;5026719;28;20226;-64
2022/12/29 01:28:41;;;;;;;23.13;19.93;;;;;;;5.91;64.71;95822.94;5019414;28;20245;-64
2022/12/29 01:31:08;;;;;;;21.37;19.17;;;;;;;5.92;64.78;95827.19;5010400;28;20191;-64
2022/12/29 01:33:33;;;;;;;21.03;18.77;;;;;;;6.02;64.67;95823.06;5008045;28;20183;-64
2022/12/29 01:36:04;;;;;;;22.77;20.10;;;;;;;6.10;64.21;95825.16;5015666;28;20260;-64
2022/12/29 01:38:30;;;;;;;22.00;19.00;;;;;;;6.10;63.95;95820.75;5017590;28;20236;-64
2022/12/29 01:40:56;;;;;;;20.83;18.63;;;;;;;6.15;63.78;95823.06;5010735;28;20227;-64
2022/12/29 01:43:39;;;;;;;21.83;19.53;;;;;;;6.05;64.11;95816.81;5012489;28;20280;-64
2022/12/29 01:46:13;;;;;;;25.03;20.37;;;;;;;6.11;63.74;95811.97;5001589;28;20291;-64
2022/12/29 01:48:39;;;;;;;22.63;20.10;;;;;;;6.13;63.92;95814.50;5014483;28;20183;-64
2022/12/29 01:51:04;;;;;;;23.50;21.00;;;;;;;6.08;63.97;95820.03;5013407;28;20231;-64
2022/12/29 01:53:34;;;;;;;22.10;19.70;;;;;;;6.06;64.03;95806.22;5011124;28;20222;-64
2022/12/29 01:56:06;;;;;;;21.90;19.37;;;;;;;6.08;63.79;95816.59;5018648;28;20295;-64
2022/12/29 01:58:35;;;;;;;22.27;19.87;;;;;;;6.05;63.88;95801.13;5009686;28;20231;-64
2022/12/29 02:01:02;;;;;;;21.93;19.67;;;;;;;6.09;63.65;95807.81;4997746;28;20194;-64
2022/12/29 02:03:31;;;;;;;20.80;18.67;;;;;;;6.12;63.51;95808.44;5006578;28;20214;-64
2022/12/29 02:06:08;;;;;;;19.47;17.13;;;;;;;6.14;63.56;95809.16;5025797;28;20229;-64
2022/12/29 02:08:35;;;;;;;19.97;17.77;;;;;;;6.07;63.48;95801.88;5015883;28;20225;-64
2022/12/29 02:11:00;;;;;;;20.10;17.70;;;;;;;6.03;63.55;95796.00;5010442;28;20315;-64
2022/12/29 02:13:27;;;;;;;19.50;17.50;;;;;;;6.00;63.94;95798.81;5018313;28;20305;-64
2022/12/29 02:15:52;;;;;;;20.53;18.33;;;;;;;5.91;63.69;95799.44;5011357;28;20195;-64
2022/12/29 02:18:23;;;;;;;19.83;17.10;;;;;;;5.98;63.98;95798.09;5015191;28;20227;-64
2022/12/29 02:21:27;;;;;;;20.17;18.17;;;;;;;6.05;63.95;95798.53;5020629;28;20229;-64
2022/12/29 02:24:01;;;;;;;21.07;17.20;;;;;;;6.06;63.56;95794.97;5022561;28;20242;-64
2022/12/29 02:26:48;;;;;;;20.20;16.53;;;;;;;6.00;63.78;95793.59;5022614;28;20214;-64
2022/12/29 02:30:02;;;;;;;19.17;17.17;;;;;;;5.99;63.97;95797.16;5027812;28;20219;-64
2022/12/29 02:32:47;;;;;;;20.13;18.03;;;;;;;5.89;64.11;95798.69;4953698;28;20235;-64
2022/12/29 02:35:45;;;;;;;20.70;18.60;;;;;;;6.02;63.66;95802.19;4963457;28;20283;-64
2022/12/29 02:38:37;;;;;;;20.30;16.70;;;;;;;6.05;63.90;95801.13;4920767;29;20233;-64
2022/12/29 02:41:16;;;;;;;19.97;17.97;;;;;;;6.02;63.83;95796.13;4898698;29;20252;-65
2022/12/29 02:43:49;;;;;;;20.17;17.87;;;;;;;6.04;63.82;95799.44;4901085;29;20242;-65
2022/12/29 02:46:28;;;;;;;19.73;17.70;;;;;;;6.13;63.39;95797.06;4897945;29;20308;-65
2022/12/29 02:49:14;;;;;;;20.60;18.20;;;;;;;6.05;63.41;95791.53;4916958;29;20218;-65
2022/12/29 02:52:03;;;;;;;21.10;18.90;;;;;;;6.10;63.39;95793.81;4894118;29;20222;-65
2022/12/29 02:54:41;;;;;;;19.97;17.87;;;;;;;6.04;63.46;95787.25;4899198;29;20230;-65
2022/12/29 02:57:30;;;;;;;20.60;18.40;;;;;;;6.02;63.70;95791.72;4904536;29;20237;-65
2022/12/29 03:00:01;;;;;;;22.27;19.53;;;;;;;6.01;63.68;95782.22;4913599;29;20242;-65
2022/12/29 03:02:34;;;;;;;21.37;19.10;;;;;;;6.09;63.57;95786.91;4916740;29;20245;-65
2022/12/29 03:05:14;;;;;;;22.97;18.67;;;;;;;6.07;63.61;95776.59;4921593;29;20237;-65
2022/12/29 03:08:24;;;;;;;23.40;19.13;;;;;;;5.84;64.11;95774.69;4914018;29;20230;-65
2022/12/29 03:17:21;;;;;;;22.13;19.73;;;;;;;5.92;64.36;95780.22;5021774;28;20313;-65
2022/12/29 03:19:50;;;;;;;21.60;19.30;;;;;;;5.90;64.41;95787.31;5026961;28;20227;-65
2022/12/29 03:22:27;;;;;;;23.93;20.27;;;;;;;5.88;64.72;95778.72;5003720;28;20232;-65
2022/12/29 03:25:15;;;;;;;21.83;19.57;;;;;;;5.82;64.77;95773.94;5017727;28;20206;-65
2022/12/29 03:27:50;;;;;;;22.57;20.10;;;;;;;5.81;64.76;95773.13;5003977;28;20298;-65
2022/12/29 03:30:17;;;;;;;23.97;21.20;;;;;;;5.71;65.08;95772.06;5007234;28;20229;-65
2022/12/29 03:32:47;;;;;;;23.77;20.93;;;;;;;5.66;65.49;95780.19;5022631;28;20222;-65
2022/12/29 03:35:16;;;;;;;24.17;21.57;;;;;;;5.61;65.25;95784.88;5024762;28;20250;-65
2022/12/29 03:37:49;;;;;;;23.40;20.03;;;;;;;5.67;65.23;95774.06;4994428;28;20227;-65
2022/12/29 03:40:15;;;;;;;23.67;21.17;;;;;;;5.67;65.25;95778.44;5010580;28;20238;-65
2022/12/29 03:42:41;;;;;;;23.07;20.23;;;;;;;5.56;65.29;95779.16;5008300;28;20293;-65
2022/12/29 03:45:07;;;;;;;24.63;21.97;;;;;;;5.56;65.29;95770.47;5017343;28;20235;-65
2022/12/29 03:47:33;;;;;;;23.67;20.83;;;;;;;5.49;65.82;95778.72;5012224;28;20219;-65
2022/12/29 03:49:58;;;;;;;26.03;22.37;;;;;;;5.42;65.93;95787.88;5019177;28;20222;-65
2022/12/29 03:52:23;;;;;;;26.90;22.27;;;;;;;5.40;65.64;95788.91;5012410;28;20222;-66
2022/12/29 03:54:49;;;;;;;23.07;20.53;;;;;;;5.42;65.53;95807.91;5029971;28;20194;-65
2022/12/29 03:57:14;;;;;;;24.63;21.93;;;;;;;5.35;65.79;95801.44;5021174;28;20223;-65
2022/12/29 03:59:40;;;;;;;26.30;20.93;;;;;;;5.29;65.76;95805.25;5027070;28;20302;-65
2022/12/29 04:02:05;;;;;;;24.90;22.23;;;;;;;5.30;65.84;95809.56;5014037;28;20227;-65
2022/12/29 04:04:31;;;;;;;24.53;21.70;;;;;;;5.28;65.56;95806.22;5012943;28;20226;-65
2022/12/29 04:06:56;;;;;;;25.80;21.27;;;;;;;5.26;65.49;95811.50;5013615;28;20309;-65
2022/12/29 04:09:21;;;;;;;23.30;20.83;;;;;;;5.29;64.92;95803.53;5020306;28;20296;-65
2022/12/29 04:11:47;;;;;;;24.07;21.37;;;;;;;5.26;65.26;95806.31;5014663;28;20219;-65
2022/12/29 04:14:12;;;;;;;22.83;19.47;;;;;;;5.18;65.03;95810.34;5015309;28;20231;-65
2022/12/29 04:16:38;;;;;;;22.07;19.67;;;;;;;5.18;65.37;95802.53;5007705;28;20235;-65
2022/12/29 04:19:05;;;;;;;23.83;20.93;;;;;;;5.12;65.19;95814.19;4993470;28;20195;-65
2022/12/29 04:21:31;;;;;;;23.33;20.23;;;;;;;5.14;65.29;95811.50;5014223;28;20193;-65
2022/12/29 04:23:56;;;;;;;23.03;20.53;;;;;;;5.01;65.85;95809.66;5015994;28;20230;-65
2022/12/29 04:26:22;;;;;;;23.20;20.67;;;;;;;5.07;65.80;95808.44;5014839;28;20294;-65
2022/12/29 04:28:47;;;;;;;24.40;21.70;;;;;;;5.07;65.74;95808.44;5027901;28;20226;-65
2022/12/29 04:31:13;;;;;;;24.70;22.13;;;;;;;5.04;65.97;95813.84;5010200;28;20294;-65
2022/12/29 04:33:38;;;;;;;23.77;21.17;;;;;;;4.94;65.77;95807.56;5018769;28;20180;-64
2022/12/29 04:36:04;;;;;;;22.87;20.40;;;;;;;5.04;65.56;95814.69;5008810;28;20223;-65
2022/12/29 04:38:29;;;;;;;23.10;20.63;;;;;;;5.14;65.37;95819.31;5009215;28;20219;-65
2022/12/29 04:40:55;;;;;;;22.83;20.23;;;;;;;5.15;65.49;95819.19;5010196;28;20231;-64
2022/12/29 04:43:21;;;;;;;23.53;21.03;;;;;;;5.07;65.36;95819.69;5007921;28;20251;-65
2022/12/29 04:45:47;;;;;;;23.07;19.77;;;;;;;5.01;65.80;95820.09;5028940;28;20280;-65
2022/12/29 04:48:14;;;;;;;24.03;21.07;;;;;;;5.04;65.61;95830.31;5003061;28;20223;-64
2022/12/29 04:50:40;;;;;;;23.43;20.90;;;;;;;5.06;65.56;95827.63;5020329;28;20257;-64
2022/12/29 04:53:06;;;;;;;27.13;22.20;;;;;;;5.02;65.27;95842.59;5018361;28;20222;-64
2022/12/29 04:55:32;;;;;;;29.23;22.60;;;;;;;4.93;65.47;95843.22;5021954;28;20273;-65
2022/12/29 04:57:57;;;;;;;24.17;21.13;;;;;;;4.97;65.36;95841.22;5019480;28;20269;-65
2022/12/29 05:00:23;;;;;;;25.13;21.40;;;;;;;4.96;65.27;95840.41;5008831;28;20198;-64
2022/12/29 05:02:48;;;;;;;25.43;21.07;;;;;;;4.93;65.35;95834.56;5008659;28;20306;-64
2022/12/29 05:05:14;;;;;;;26.93;22.20;;;;;;;4.91;65.79;95839.84;5019986;28;20288;-64
2022/12/29 05:07:39;;;;;;;26.33;21.80;;;;;;;4.95;65.67;95835.31;5015866;28;20230;-64
2022/12/29 05:10:06;;;;;;;31.57;23.23;;;;;;;5.00;65.50;95841.06;5015144;28;20191;-64
2022/12/29 05:12:33;;;;;;;25.17;21.60;;;;;;;4.98;65.71;95838.53;5022326;28;20243;-64
2022/12/29 05:14:59;;;;;;;27.87;21.93;;;;;;;5.03;65.35;95838.25;5013907;28;20253;-65
2022/12/29 05:17:25;;;;;;;25.87;21.57;;;;;;;4.98;65.70;95835.09;5021161;28;20219;-65
2022/12/29 05:19:50;;;;;;;27.30;21.50;;;;;;;5.03;65.77;95841.69;5011292;28;20285;-64
2022/12/29 05:22:16;;;;;;;28.60;22.77;;;;;;;4.62;66.40;95833.84;5006826;28;20318;-64
2022/12/29 05:24:41;;;;;;;30.10;22.80;;;;;;;4.60;66.96;95840.97;5008864;28;20197;-64
2022/12/29 05:27:06;;;;;;;26.13;21.50;;;;;;;4.83;66.50;95842.94;5002469;28;20259;-64
2022/12/29 05:29:32;;;;;;;26.10;22.37;;;;;;;4.81;65.96;95830.94;5007879;28;20234;-64
2022/12/29 05:31:57;;;;;;;26.87;23.40;;;;;;;4.53;66.97;95831.84;5010057;28;20215;-65
2022/12/29 05:34:23;;;;;;;28.97;24.87;;;;;;;4.18;68.58;95835.66;5017931;28;20222;-64
2022/12/29 05:36:48;;;;;;;27.73;24.47;;;;;;;4.53;67.56;95834.44;5013362;28;20190;-65
2022/12/29 05:39:14;;;;;;;30.80;27.17;;;;;;;4.24;69.26;95831.03;5009577;28;20223;-65
2022/12/29 05:41:39;;;;;;;30.23;26.20;;;;;;;4.54;68.14;95831.72;5021731;28;20224;-65
2022/12/29 05:44:06;;;;;;;28.83;25.73;;;;;;;4.50;68.61;95839.84;5019628;28;20242;-65
2022/12/29 05:46:32;;;;;;;34.77;27.07;;;;;;;4.23;69.65;95839.78;5011462;28;20262;-64
2022/12/29 05:48:57;;;;;;;33.07;28.00;;;;;;;4.47;69.49;95840.03;5015509;28;20278;-64
2022/12/29 05:51:23;;;;;;;31.13;27.63;;;;;;;4.50;69.44;95839.84;5008855;28;20577;-64
2022/12/29 05:53:48;;;;;;;29.13;25.80;;;;;;;4.28;69.94;95843.75;5024243;28;20226;-65
2022/12/29 05:56:14;;;;;;;33.83;26.83;;;;;;;4.58;69.07;95848.84;5011555;28;20227;-64
2022/12/29 05:58:39;;;;;;;34.00;27.47;;;;;;;4.19;70.51;95852.13;5010247;28;20222;-65
2022/12/29 06:01:05;;;;;;;35.27;28.10;;;;;;;3.96;71.00;95858.72;5008997;28;20245;-65
2022/12/29 06:03:30;;;;;;;31.00;27.70;;;;;;;4.22;70.67;95854.53;5013777;28;20201;-65
2022/12/29 06:05:56;;;;;;;30.27;26.83;;;;;;;4.55;69.54;95848.22;5000429;28;20220;-65
2022/12/29 06:08:21;;;;;;;32.57;28.17;;;;;;;4.31;70.66;95848.78;4987280;28;20219;-65
2022/12/29 06:10:46;;;;;;;29.93;25.87;;;;;;;4.52;70.12;95854.44;5003529;28;20238;-65
2022/12/29 06:13:12;;;;;;;33.30;27.80;;;;;;;4.64;69.60;95858.06;4991794;28;20186;-65
2022/12/29 06:15:37;;;;;;;34.77;28.87;;;;;;;4.75;69.35;95860.00;4991880;28;20270;-65
2022/12/29 06:18:03;;;;;;;31.23;28.03;;;;;;;5.00;68.47;95862.75;5001240;28;20278;-65
2022/12/29 06:20:28;;;;;;;30.57;27.30;;;;;;;4.84;69.25;95851.63;5002397;28;20231;-65
2022/12/29 06:22:54;;;;;;;29.10;25.93;;;;;;;5.08;68.13;95855.28;5006208;28;20226;-65
2022/12/29 06:25:19;;;;;;;32.50;26.93;;;;;;;5.23;67.59;95855.22;5009555;28;20223;-65
2022/12/29 06:27:45;;;;;;;34.03;29.23;;;;;;;4.81;69.46;95862.19;5011114;28;20199;-65
2022/12/29 06:30:11;;;;;;;33.67;28.50;;;;;;;5.02;68.87;95860.03;5011312;28;20230;-65
2022/12/29 06:32:36;;;;;;;32.90;27.70;;;;;;;5.30;67.96;95859.94;5011284;28;20215;-65
2022/12/29 06:35:03;;;;;;;36.57;28.37;;;;;;;5.28;68.20;95866.19;5018380;28;20230;-65
2022/12/29 06:37:29;;;;;;;31.00;27.50;;;;;;;5.12;68.29;95855.91;5026618;28;20219;-65
2022/12/29 06:39:54;;;;;;;32.00;28.17;;;;;;;5.26;67.96;95863.66;5009591;28;20195;-65
2022/12/29 06:42:20;;;;;;;32.20;28.80;;;;;;;5.27;68.10;95872.34;5025168;28;20210;-65
2022/12/29 06:44:45;;;;;;;30.77;27.47;;;;;;;5.14;69.06;95861.88;5014891;28;20239;-65
2022/12/29 06:47:11;;;;;;;34.43;30.20;;;;;;;5.42;67.78;95881.78;5026675;28;20280;-65
2022/12/29 06:49:36;;;;;;;32.67;28.63;;;;;;;5.37;68.26;95869.97;5018372;28;20226;-65
2022/12/29 06:52:04;;;;;;;31.43;27.93;;;;;;;5.46;67.83;95872.00;5017448;28;20186;-65
2022/12/29 06:54:30;;;;;;;33.17;27.53;;;;;;;5.59;67.63;95875.47;5013617;28;20221;-65
2022/12/29 06:56:55;;;;;;;35.73;28.30;;;;;;;5.61;67.56;95872.75;5011455;28;20231;-66
2022/12/29 06:59:21;;;;;;;31.73;27.63;;;;;;;5.67;67.02;95872.38;5020127;28;20238;-65
2022/12/29 07:01:46;;;;;;;31.13;27.70;;;;;;;5.80;66.66;95872.38;5015040;28;20292;-65
2022/12/29 07:04:12;;;;;;;32.43;27.60;;;;;;;5.86;66.39;95875.44;5011601;28;20183;-65
2022/12/29 07:06:37;;;;;;;30.83;27.00;;;;;;;5.95;66.04;95871.41;5012455;28;20194;-65
2022/12/29 07:09:03;;;;;;;31.50;28.10;;;;;;;5.59;67.19;95866.81;5009713;28;20231;-65
2022/12/29 07:11:28;;;;;;;30.33;26.70;;;;;;;5.74;66.83;95871.00;4998217;28;20211;-65
2022/12/29 07:13:53;;;;;;;32.50;28.13;;;;;;;5.67;67.10;95878.41;5015950;28;20219;-65
2022/12/29 07:16:19;;;;;;;31.77;26.10;;;;;;;5.96;66.30;95871.31;5028318;28;20222;-65
2022/12/29 07:18:45;;;;;;;31.00;27.50;;;;;;;6.15;65.80;95868.28;5029029;28;20182;-65
2022/12/29 07:21:11;;;;;;;30.60;25.90;;;;;;;6.37;65.19;95872.06;5014022;28;20241;-65
2022/12/29 07:23:37;;;;;;;34.63;26.03;;;;;;;6.39;64.63;95865.78;5027305;28;20269;-65
2022/12/29 07:26:05;;;;;;;28.07;25.07;;;;;;;6.51;64.75;95865.88;5025524;28;20281;-65
2022/12/29 07:28:32;;;;;;;29.67;23.50;;;;;;;6.50;64.11;95867.66;5013275;28;20251;-65
2022/12/29 07:30:58;;;;;;;29.43;24.27;;;;;;;6.52;64.03;95859.69;5010448;28;20252;-65
2022/12/29 07:33:24;;;;;;;26.67;23.43;;;;;;;6.47;63.84;95870.47;5008769;28;20222;-65
2022/12/29 07:35:50;;;;;;;28.63;23.90;;;;;;;6.51;64.07;95863.25;5010726;28;20227;-65
2022/12/29 07:38:16;;;;;;;27.27;23.13;;;;;;;6.64;63.67;95874.53;5017235;28;20226;-65
2022/12/29 07:40:42;;;;;;;29.33;23.83;;;;;;;6.77;63.00;95871.91;5020655;28;20215;-66
2022/12/29 07:43:08;;;;;;;29.40;24.47;;;;;;;6.78;63.27;95863.09;5015474;28;20195;-65
2022/12/29 07:45:33;;;;;;;28.87;24.93;;;;;;;6.80;62.84;95871.69;5019303;28;20235;-65
2022/12/29 07:47:58;;;;;;;29.63;25.83;;;;;;;6.81;63.23;95875.97;5014053;28;20235;-66
2022/12/29 07:50:24;;;;;;;33.87;24.23;;;;;;;6.94;62.77;95870.72;5032385;28;20217;-65
2022/12/29 07:52:49;;;;;;;26.40;23.47;;;;;;;7.09;62.42;95881.88;5023167;28;20214;-65
2022/12/29 07:55:15;;;;;;;29.80;24.77;;;;;;;7.19;62.09;95867.16;5015625;28;20179;-65
2022/12/29 07:57:41;;;;;;;32.20;25.93;;;;;;;7.31;61.78;95884.63;5028180;28;20188;-65
2022/12/29 08:00:07;;;;;;;27.83;24.10;;;;;;;7.30;61.73;95877.72;5014216;28;20230;-65
2022/12/29 08:02:32;;;;;;;30.63;23.27;;;;;;;7.14;61.66;95870.13;5020827;28;20222;-65
2022/12/29 08:04:58;;;;;;;27.67;23.93;;;;;;;7.20;61.14;95879.31;5027904;28;20229;-65
2022/12/29 08:07:23;;;;;;;28.33;23.17;;;;;;;7.24;61.47;95881.63;5010360;28;20273;-65
2022/12/29 08:09:48;;;;;;;27.17;23.97;;;;;;;7.39;60.62;95891.91;5020042;28;20191;-65
2022/12/29 08:12:14;;;;;;;27.40;22.90;;;;;;;7.42;60.86;95889.06;5014284;28;20223;-65
2022/12/29 08:14:39;;;;;;;26.13;23.27;;;;;;;6.69;62.50;95882.06;5018904;28;20219;-65
2022/12/29 08:17:05;;;;;;;29.10;23.23;;;;;;;7.01;61.81;95887.66;5002382;28;20219;-65
2022/12/29 08:19:30;;;;;;;29.73;23.80;;;;;;;7.33;60.63;95882.72;5010120;28;20191;-65
2022/12/29 08:21:56;;;;;;;28.20;23.20;;;;;;;7.42;60.66;95873.38;5024324;28;20363;-65
2022/12/29 08:24:21;;;;;;;27.67;22.67;;;;;;;7.58;60.04;95886.19;5011297;28;20242;-65
2022/12/29 08:26:46;;;;;;;26.87;23.20;;;;;;;7.66;59.81;95879.44;5020120;28;20219;-65
2022/12/29 08:29:12;;;;;;;30.23;23.33;;;;;;;7.74;59.45;95876.25;5017467;28;20226;-66
2022/12/29 08:31:37;;;;;;;34.50;23.80;;;;;;;7.72;59.46;95878.13;5006665;28;20622;-65
2022/12/29 08:34:03;;;;;;;27.13;22.47;;;;;;;7.75;59.15;95870.06;5014350;28;20186;-65
2022/12/29 08:36:30;;;;;;;26.10;23.03;;;;;;;7.79;58.87;95874.13;5016453;28;20261;-65
2022/12/29 08:38:56;;;;;;;26.40;22.97;;;;;;;7.67;58.70;95872.41;5019213;28;20218;-65
2022/12/29 08:41:21;;;;;;;31.53;23.77;;;;;;;7.77;58.81;95872.56;5012806;28;20226;-65
2022/12/29 08:43:48;;;;;;;29.57;23.77;;;;;;;7.84;58.99;95873.78;5007571;28;20294;-64
2022/12/29 08:46:14;;;;;;;32.27;23.10;;;;;;;7.98;58.21;95870.97;5026799;28;20235;-65
2022/12/29 08:48:39;;;;;;;30.20;23.27;;;;;;;7.70;58.40;95877.44;5021862;28;20216;-65
2022/12/29 08:51:05;;;;;;;25.27;22.57;;;;;;;7.51;59.20;95876.16;5005451;28;20229;-65
2022/12/29 08:53:30;;;;;;;27.47;23.27;;;;;;;7.52;59.14;95874.38;5008823;28;20231;-66
2022/12/29 08:55:59;;;;;;;27.67;24.67;;;;;;;7.62;58.90;95864.91;5018108;28;20226;-65
2022/12/29 08:58:25;;;;;;;26.40;23.33;;;;;;;7.78;58.49;95864.63;5001833;28;20195;-65
2022/12/29 09:00:55;;;;;;;25.97;23.13;;;;;;;7.80;58.42;95861.88;5029380;28;20242;-65
2022/12/29 09:03:22;;;;;;;27.40;24.13;;;;;;;7.90;58.12;95857.63;5011347;28;20230;-65
2022/12/29 09:05:50;;;;;;;25.23;22.37;;;;;;;8.01;57.97;95849.78;5016406;28;20215;-65
2022/12/29 09:08:16;;;;;;;25.73;22.93;;;;;;;8.15;57.63;95857.44;5021495;28;20215;-65
2022/12/29 09:10:43;;;;;;;29.63;23.30;;;;;;;8.25;57.54;95849.72;5008672;28;20211;-65
2022/12/29 09:13:09;;;;;;;26.00;21.70;;;;;;;8.08;57.51;95855.41;5017069;28;20323;-66
2022/12/29 09:15:34;;;;;;;29.20;21.77;;;;;;;8.10;56.87;95848.25;5000894;28;20275;-66
2022/12/29 09:18:00;;;;;;;25.73;21.90;;;;;;;8.17;57.09;95841.59;5037765;28;20222;-65
2022/12/29 09:20:28;;;;;;;24.63;22.00;;;;;;;8.31;56.90;95844.03;5012261;28;20254;-66
2022/12/29 09:22:53;;;;;;;27.97;23.03;;;;;;;8.23;56.75;95846.38;5013995;28;20682;-66
2022/12/29 09:25:19;;;;;;;26.33;22.30;;;;;;;8.25;56.88;95848.88;5010967;28;20183;-66
2022/12/29 09:27:45;;;;;;;27.53;22.33;;;;;;;8.25;57.08;95847.09;5015648;28;20186;-66
2022/12/29 09:30:14;;;;;;;25.53;22.30;;;;;;;8.44;56.77;95843.91;5015390;28;20215;-66
2022/12/29 09:32:39;;;;;;;27.07;21.27;;;;;;;8.54;56.36;95837.03;5010212;28;20216;-66
2022/12/29 09:35:05;;;;;;;24.47;21.27;;;;;;;8.60;56.01;95846.19;5017416;28;20225;-65
2022/12/29 09:37:30;;;;;;;24.70;22.03;;;;;;;8.65;55.86;95840.59;4990202;28;20206;-66
2022/12/29 09:39:56;;;;;;;25.63;22.93;;;;;;;8.65;55.66;95838.81;5015019;28;20667;-66
2022/12/29 09:43:06;;;;;;;25.03;21.97;;;;;;;8.36;56.51;95830.53;5004499;28;20235;-66
2022/12/29 09:46:02;;;;;;;27.47;21.67;;;;;;;8.62;56.57;95825.94;4994849;28;20316;-66
2022/12/29 09:48:37;;;;;;;27.57;20.17;;;;;;;8.93;55.47;95827.00;5008603;28;20307;-66
2022/12/29 09:51:10;;;;;;;23.67;20.47;;;;;;;8.68;56.15;95819.38;5010819;28;20254;-66
2022/12/29 09:53:40;;;;;;;22.90;20.03;;;;;;;8.84;55.97;95827.69;5021266;28;20229;-66
2022/12/29 09:56:14;;;;;;;24.07;19.93;;;;;;;9.05;55.61;95825.16;5010291;28;20215;-66
2022/12/29 09:58:44;;;;;;;25.87;21.00;;;;;;;9.00;55.19;95819.44;5015408;28;20290;-66
2022/12/29 10:01:19;;;;;;;22.87;20.10;;;;;;;9.25;54.83;95823.59;5032122;28;20197;-66
2022/12/29 10:03:53;;;;;;;23.97;20.13;;;;;;;9.46;53.83;95815.72;5006619;28;20602;-66
2022/12/29 10:06:33;;;;;;;26.30;21.53;;;;;;;9.38;54.29;95810.28;5019255;28;20249;-66
2022/12/29 10:09:36;;;;;;;24.07;21.17;;;;;;;9.34;54.36;95803.63;5016325;28;20304;-66
2022/12/29 10:12:08;;;;;;;24.00;20.80;;;;;;;9.30;54.53;95803.03;5008979;28;20291;-66
2022/12/29 10:14:48;;;;;;;25.00;21.73;;;;;;;9.17;55.03;95805.00;5026126;28;20230;-66
2022/12/29 10:17:37;;;;;;;24.37;21.83;;;;;;;9.31;54.71;95796.00;5018833;28;20221;-67
2022/12/29 10:20:14;;;;;;;25.47;22.23;;;;;;;9.41;54.02;95802.16;5009053;28;20290;-67
2022/12/29 10:23:18;;;;;;;25.00;22.40;;;;;;;9.43;54.38;95797.63;5018415;28;20237;-67
2022/12/29 10:25:45;;;;;;;24.67;21.23;;;;;;;9.47;54.16;95805.13;5012044;28;20219;-67
2022/12/29 10:28:33;;;;;;;25.10;20.57;;;;;;;9.15;55.24;95792.00;4999505;28;20221;-66
2022/12/29 10:31:01;;;;;;;24.33;21.87;;;;;;;9.41;54.62;95783.78;5002205;28;20212;-67
2022/12/29 10:33:36;;;;;;;26.37;21.73;;;;;;;9.57;54.05;95789.47;5019498;28;20215;-67
2022/12/29 10:36:30;;;;;;;24.60;22.03;;;;;;;9.72;53.58;95788.16;5013145;28;20214;-67
2022/12/29 10:39:19;;;;;;;23.67;21.07;;;;;;;9.80;53.34;95779.66;5003693;28;20219;-66
2022/12/29 10:41:48;;;;;;;22.87;20.47;;;;;;;9.64;53.97;95774.84;5019400;28;20234;-67
2022/12/29 10:44:17;;;;;;;23.47;21.03;;;;;;;9.57;54.03;95768.44;5018020;28;20308;-67
2022/12/29 10:46:47;;;;;;;22.97;20.33;;;;;;;9.66;54.23;95766.84;5015339;28;20225;-67
2022/12/29 10:49:17;;;;;;;23.63;21.00;;;;;;;9.70;54.08;95763.84;5011623;28;20281;-68
2022/12/29 10:51:46;;;;;;;27.03;22.40;;;;;;;9.89;53.56;95767.53;5009122;28;20222;-67
2022/12/29 10:54:21;;;;;;;24.80;22.10;;;;;;;10.11;52.58;95764.78;5020814;28;20241;-67
2022/12/29 10:56:51;;;;;;;26.70;24.00;;;;;;;10.28;52.35;95758.09;5022795;28;20218;-67
2022/12/29 10:59:27;;;;;;;26.97;22.47;;;;;;;10.41;51.89;95755.25;5012315;28;20286;-68
2022/12/29 11:02:11;;;;;;;26.23;23.37;;;;;;;10.53;51.51;95751.56;5028301;28;20277;-68
2022/12/29 11:04:53;;;;;;;27.33;24.07;;;;;;;10.53;51.32;95741.06;5019853;28;20218;-67
2022/12/29 11:07:20;;;;;;;26.27;23.20;;;;;;;10.53;51.25;95741.06;5017304;28;20193;-67
2022/12/29 11:09:46;;;;;;;26.97;24.17;;;;;;;10.49;51.56;95739.63;5023574;28;20203;-67
2022/12/29 11:12:27;;;;;;;28.83;25.40;;;;;;;10.57;51.29;95739.81;5021467;28;20236;-67
2022/12/29 11:15:08;;;;;;;27.87;24.87;;;;;;;10.58;51.54;95738.00;5020125;28;20218;-67
2022/12/29 11:17:48;;;;;;;26.00;23.33;;;;;;;10.66;51.51;95729.44;5025787;28;20227;-67
2022/12/29 11:20:37;;;;;;;30.67;24.00;;;;;;;10.79;50.81;95725.59;5031830;28;20223;-67
2022/12/29 11:23:05;;;;;;;27.23;24.37;;;;;;;11.08;50.35;95727.44;5021032;28;20216;-67
2022/12/29 11:25:31;;;;;;;25.60;22.90;;;;;;;11.00;50.41;95728.13;5013684;28;20225;-67
2022/12/29 11:28:00;;;;;;;26.10;23.30;;;;;;;10.92;50.84;95727.97;5005982;28;20184;-65
2022/12/29 11:30:29;;;;;;;25.90;23.10;;;;;;;11.25;50.03;95724.13;5009509;28;20223;-66
2022/12/29 11:32:56;;;;;;;30.67;26.30;;;;;;;11.56;49.61;95729.22;5010748;28;20223;-66
2022/12/29 11:35:30;;;;;;;29.37;25.07;;;;;;;11.67;49.09;95720.34;5013181;28;20245;-66
2022/12/29 11:37:58;;;;;;;28.17;24.93;;;;;;;11.50;49.10;95719.28;5024375;28;20218;-66
2022/12/29 11:40:24;;;;;;;30.30;24.60;;;;;;;11.63;48.87;95725.06;5012678;28;20180;-66
2022/12/29 11:43:04;;;;;;;28.53;22.40;;;;;;;11.85;48.38;95713.38;5018294;28;20197;-66
2022/12/29 11:45:34;;;;;;;25.60;22.83;;;;;;;11.90;48.10;95710.34;5009032;28;20255;-66
2022/12/29 11:48:17;;;;;;;25.23;22.13;;;;;;;12.05;47.83;95713.34;5010864;28;20270;-66
2022/12/29 11:50:48;;;;;;;24.27;21.77;;;;;;;12.12;47.70;95709.16;5019878;28;20219;-66
2022/12/29 11:53:26;;;;;;;25.80;20.70;;;;;;;11.96;48.05;95708.94;5027171;28;20227;-66
2022/12/29 11:56:08;;;;;;;24.33;20.60;;;;;;;12.02;48.33;95709.19;5009552;28;20223;-67
2022/12/29 11:58:38;;;;;;;24.20;21.60;;;;;;;12.28;47.68;95703.28;5001632;28;20186;-67
2022/12/29 12:01:09;;;;;;;24.33;21.07;;;;;;;12.63;47.14;95717.56;5012509;28;20690;-67
2022/12/29 12:03:38;;;;;;;23.87;20.07;;;;;;;12.64;46.01;95708.66;5009296;28;20255;-66
2022/12/29 12:06:06;;;;;;;23.15;20.65;;;;;;;12.57;46.52;95703.16;5025188;28;20217;-66
2022/12/29 12:08:45;;;;;;;26.73;20.30;;;;;;;12.69;45.98;95715.16;5016140;28;20234;-66
2022/12/29 12:11:20;;;;;;;23.90;21.07;;;;;;;12.91;45.48;95699.88;5014947;28;20320;-67